Norwood, Canada
Current Conditions -  °F | °C
As of 9:00 PM on Friday 28 Nov 2014 (Local Time) from CYPQ Reporting Station
Overcast Overcast  
Wind Chill: 21°   Ceiling: 12000
Heat Index: 21°   Visibility: 9mi
Dew Point: 19°   Wind: 0mph
Humidity: 93%   Direction: NA
Pressure: 30.18"   Gusts: NA
Location:  44.38°N, 77.98°W
Report Text: CYPQ 290200Z AUTO 00000KT 9SM BKN120 OVC140 M06/M07 A3018 RMK SLP230
Loading
Personal Weather Stations






























Interactive Weather Map New forecast layout! Learn more

10-Day Weather Forecast

Advertisements
Track Severe Weather on mobile